sensor_id;sensor_type;location;lat;lon;timestamp;pressure;altitude;pressure_sealevel;temperature;humidity
62926;BME280;55732;52.248;-0.844;2023-04-22T00:01:35;99954.02;;;8.67;81.95
62926;BME280;55732;52.248;-0.844;2023-04-22T00:04:01;99954.21;;;8.67;82.12
62926;BME280;55732;52.248;-0.844;2023-04-22T00:06:26;99952.27;;;8.67;82.25
62926;BME280;55732;52.248;-0.844;2023-04-22T00:08:52;99944.73;;;8.67;82.31
62926;BME280;55732;52.248;-0.844;2023-04-22T00:11:17;99940.88;;;8.67;82.23
62926;BME280;55732;52.248;-0.844;2023-04-22T00:13:42;99941.05;;;8.67;81.77
62926;BME280;55732;52.248;-0.844;2023-04-22T00:16:08;99940.35;;;8.68;81.85
62926;BME280;55732;52.248;-0.844;2023-04-22T00:18:34;99932.10;;;8.67;81.78
62926;BME280;55732;52.248;-0.844;2023-04-22T00:21:01;99930.70;;;8.67;81.67
62926;BME280;55732;52.248;-0.844;2023-04-22T00:23:26;99924.38;;;8.66;81.92
62926;BME280;55732;52.248;-0.844;2023-04-22T00:25:51;99923.67;;;8.65;81.71
62926;BME280;55732;52.248;-0.844;2023-04-22T00:28:17;99920.17;;;8.63;81.92
62926;BME280;55732;52.248;-0.844;2023-04-22T00:30:42;99921.40;;;8.62;81.74
62926;BME280;55732;52.248;-0.844;2023-04-22T00:33:08;99917.18;;;8.62;81.86
62926;BME280;55732;52.248;-0.844;2023-04-22T00:35:34;99912.98;;;8.61;81.86
62926;BME280;55732;52.248;-0.844;2023-04-22T00:37:59;99912.31;;;8.59;81.72
62926;BME280;55732;52.248;-0.844;2023-04-22T00:40:25;99905.65;;;8.58;81.79
62926;BME280;55732;52.248;-0.844;2023-04-22T00:42:50;99901.09;;;8.56;81.87
62926;BME280;55732;52.248;-0.844;2023-04-22T00:45:18;99900.92;;;8.53;81.93
62926;BME280;55732;52.248;-0.844;2023-04-22T00:47:44;99900.92;;;8.51;82.10
62926;BME280;55732;52.248;-0.844;2023-04-22T00:50:10;99896.52;;;8.51;81.98
62926;BME280;55732;52.248;-0.844;2023-04-22T00:52:36;99891.97;;;8.52;82.15
62926;BME280;55732;52.248;-0.844;2023-04-22T00:55:01;99888.11;;;8.52;82.20
62926;BME280;55732;52.248;-0.844;2023-04-22T00:57:29;99879.34;;;8.51;82.07
62926;BME280;55732;52.248;-0.844;2023-04-22T00:59:55;99875.33;;;8.49;82.30
62926;BME280;55732;52.248;-0.844;2023-04-22T01:02:21;99873.94;;;8.47;82.37
62926;BME280;55732;52.248;-0.844;2023-04-22T01:04:47;99870.95;;;8.46;82.29
62926;BME280;55732;52.248;-0.844;2023-04-22T01:07:13;99867.98;;;8.44;82.54
62926;BME280;55732;52.248;-0.844;2023-04-22T01:09:39;99862.71;;;8.44;82.44
62926;BME280;55732;52.248;-0.844;2023-04-22T01:12:05;99858.86;;;8.42;82.24
62926;BME280;55732;52.248;-0.844;2023-04-22T01:14:31;99855.88;;;8.41;82.30
62926;BME280;55732;52.248;-0.844;2023-04-22T01:16:57;99852.73;;;8.40;82.47
62926;BME280;55732;52.248;-0.844;2023-04-22T01:19:22;99852.19;;;8.41;82.56
62926;BME280;55732;52.248;-0.844;2023-04-22T01:21:52;99850.79;;;8.41;82.51
62926;BME280;55732;52.248;-0.844;2023-04-22T01:24:18;99851.32;;;8.42;82.44
62926;BME280;55732;52.248;-0.844;2023-04-22T01:26:44;99851.66;;;8.43;82.35
62926;BME280;55732;52.248;-0.844;2023-04-22T01:29:10;99846.58;;;8.43;82.32
62926;BME280;55732;52.248;-0.844;2023-04-22T01:31:36;99843.59;;;8.43;82.16
62926;BME280;55732;52.248;-0.844;2023-04-22T01:34:02;99841.84;;;8.43;82.23
62926;BME280;55732;52.248;-0.844;2023-04-22T01:36:27;99839.91;;;8.43;82.37
62926;BME280;55732;52.248;-0.844;2023-04-22T01:38:53;99837.80;;;8.42;82.06
62926;BME280;55732;52.248;-0.844;2023-04-22T01:41:18;99833.95;;;8.43;82.20
62926;BME280;55732;52.248;-0.844;2023-04-22T01:43:44;99824.83;;;8.44;82.20
62926;BME280;55732;52.248;-0.844;2023-04-22T01:46:10;99822.71;;;8.43;82.09
62926;BME280;55732;52.248;-0.844;2023-04-22T01:48:36;99817.63;;;8.43;82.02
62926;BME280;55732;52.248;-0.844;2023-04-22T01:51:02;99814.12;;;8.43;81.98
62926;BME280;55732;52.248;-0.844;2023-04-22T01:53:27;99815.00;;;8.44;82.11
62926;BME280;55732;52.248;-0.844;2023-04-22T01:55:53;99811.84;;;8.46;82.09
62926;BME280;55732;52.248;-0.844;2023-04-22T01:58:18;99813.77;;;8.48;82.12
62926;BME280;55732;52.248;-0.844;2023-04-22T02:00:44;99807.76;;;8.50;82.05
62926;BME280;55732;52.248;-0.844;2023-04-22T02:03:10;99811.09;;;8.51;81.96
62926;BME280;55732;52.248;-0.844;2023-04-22T02:05:36;99808.45;;;8.51;81.93
62926;BME280;55732;52.248;-0.844;2023-04-22T02:08:02;99813.02;;;8.51;81.86
62926;BME280;55732;52.248;-0.844;2023-04-22T02:10:29;99818.64;;;8.50;81.76
62926;BME280;55732;52.248;-0.844;2023-04-22T02:12:55;99818.83;;;8.50;81.74
62926;BME280;55732;52.248;-0.844;2023-04-22T02:15:20;99820.95;;;8.48;81.79
62926;BME280;55732;52.248;-0.844;2023-04-22T02:17:47;99821.83;;;8.47;81.64
62926;BME280;55732;52.248;-0.844;2023-04-22T02:20:12;99819.55;;;8.45;81.44
62926;BME280;55732;52.248;-0.844;2023-04-22T02:22:39;99816.75;;;8.44;81.46
62926;BME280;55732;52.248;-0.844;2023-04-22T02:25:07;99812.89;;;8.44;81.37
62926;BME280;55732;52.248;-0.844;2023-04-22T02:27:32;99813.07;;;8.43;81.45
62926;BME280;55732;52.248;-0.844;2023-04-22T02:29:58;99813.23;;;8.42;81.11
62926;BME280;55732;52.248;-0.844;2023-04-22T02:32:23;99816.23;;;8.41;81.13
62926;BME280;55732;52.248;-0.844;2023-04-22T02:34:49;99816.58;;;8.41;81.34
62926;BME280;55732;52.248;-0.844;2023-04-22T02:37:14;99815.35;;;8.41;81.44
62926;BME280;55732;52.248;-0.844;2023-04-22T02:39:40;99811.84;;;8.41;81.28
62926;BME280;55732;52.248;-0.844;2023-04-22T02:42:06;99816.23;;;8.41;81.22
62926;BME280;55732;52.248;-0.844;2023-04-22T02:44:31;99817.11;;;8.40;81.21
62926;BME280;55732;52.248;-0.844;2023-04-22T02:46:56;99815.18;;;8.39;81.11
62926;BME280;55732;52.248;-0.844;2023-04-22T02:49:22;99811.48;;;8.40;81.17
62926;BME280;55732;52.248;-0.844;2023-04-22T02:51:47;99814.30;;;8.40;81.32
62926;BME280;55732;52.248;-0.844;2023-04-22T02:54:13;99809.92;;;8.40;81.15
62926;BME280;55732;52.248;-0.844;2023-04-22T02:56:38;99808.34;;;8.39;81.13
62926;BME280;55732;52.248;-0.844;2023-04-22T02:59:03;99804.52;;;8.37;81.21
62926;BME280;55732;52.248;-0.844;2023-04-22T03:01:29;99805.04;;;8.37;81.10
62926;BME280;55732;52.248;-0.844;2023-04-22T03:03:55;99802.23;;;8.37;81.18
62926;BME280;55732;52.248;-0.844;2023-04-22T03:06:21;99800.13;;;8.38;81.21
62926;BME280;55732;52.248;-0.844;2023-04-22T03:08:46;99795.91;;;8.38;81.23
62926;BME280;55732;52.248;-0.844;2023-04-22T03:11:11;99794.16;;;8.38;81.20
62926;BME280;55732;52.248;-0.844;2023-04-22T03:13:38;99795.73;;;8.38;81.17
62926;BME280;55732;52.248;-0.844;2023-04-22T03:16:03;99793.83;;;8.36;81.17
62926;BME280;55732;52.248;-0.844;2023-04-22T03:18:29;99794.70;;;8.36;81.01
62926;BME280;55732;52.248;-0.844;2023-04-22T03:20:54;99796.10;;;8.38;80.97
62926;BME280;55732;52.248;-0.844;2023-04-22T03:23:20;99788.71;;;8.38;80.93
62926;BME280;55732;52.248;-0.844;2023-04-22T03:25:45;99784.14;;;8.39;80.88
62926;BME280;55732;52.248;-0.844;2023-04-22T03:28:10;99778.88;;;8.39;80.88
62926;BME280;55732;52.248;-0.844;2023-04-22T03:30:36;99771.16;;;8.39;81.01
62926;BME280;55732;52.248;-0.844;2023-04-22T03:33:01;99768.00;;;8.39;80.75
62926;BME280;55732;52.248;-0.844;2023-04-22T03:35:26;99762.04;;;8.39;80.79
62926;BME280;55732;52.248;-0.844;2023-04-22T03:37:52;99761.86;;;8.39;80.95
62926;BME280;55732;52.248;-0.844;2023-04-22T03:40:18;99756.60;;;8.39;80.93
62926;BME280;55732;52.248;-0.844;2023-04-22T03:42:43;99756.08;;;8.39;80.98
62926;BME280;55732;52.248;-0.844;2023-04-22T03:45:09;99749.94;;;8.39;81.00
62926;BME280;55732;52.248;-0.844;2023-04-22T03:47:34;99751.36;;;8.38;80.89
62926;BME280;55732;52.248;-0.844;2023-04-22T03:50:00;99751.55;;;8.37;80.94
62926;BME280;55732;52.248;-0.844;2023-04-22T03:52:25;99744.71;;;8.36;80.74
62926;BME280;55732;52.248;-0.844;2023-04-22T03:54:51;99744.20;;;8.35;80.88
62926;BME280;55732;52.248;-0.844;2023-04-22T03:57:16;99741.56;;;8.33;80.76
62926;BME280;55732;52.248;-0.844;2023-04-22T03:59:41;99739.64;;;8.33;80.74
62926;BME280;55732;52.248;-0.844;2023-04-22T04:02:07;99740.50;;;8.33;80.46
62926;BME280;55732;52.248;-0.844;2023-04-22T04:04:32;99737.52;;;8.33;80.18
62926;BME280;55732;52.248;-0.844;2023-04-22T04:06:59;99728.23;;;8.33;80.41
62926;BME280;55732;52.248;-0.844;2023-04-22T04:09:25;99724.90;;;8.33;80.18
62926;BME280;55732;52.248;-0.844;2023-04-22T04:11:51;99725.95;;;8.32;80.26
62926;BME280;55732;52.248;-0.844;2023-04-22T04:14:16;99723.32;;;8.33;80.29
62926;BME280;55732;52.248;-0.844;2023-04-22T04:16:43;99727.18;;;8.33;80.15
62926;BME280;55732;52.248;-0.844;2023-04-22T04:19:08;99722.80;;;8.32;80.19
62926;BME280;55732;52.248;-0.844;2023-04-22T04:21:34;99717.52;;;8.31;79.96
62926;BME280;55732;52.248;-0.844;2023-04-22T04:23:59;99717.89;;;8.31;80.08
62926;BME280;55732;52.248;-0.844;2023-04-22T04:26:25;99715.23;;;8.31;80.31
62926;BME280;55732;52.248;-0.844;2023-04-22T04:28:52;99715.05;;;8.30;80.46
62926;BME280;55732;52.248;-0.844;2023-04-22T04:31:18;99713.65;;;8.30;80.18
62926;BME280;55732;52.248;-0.844;2023-04-22T04:33:43;99711.02;;;8.28;79.88
62926;BME280;55732;52.248;-0.844;2023-04-22T04:36:09;99701.40;;;8.26;79.84
62926;BME280;55732;52.248;-0.844;2023-04-22T04:38:35;99695.30;;;8.23;79.47
62926;BME280;55732;52.248;-0.844;2023-04-22T04:41:00;99694.79;;;8.19;79.58
62926;BME280;55732;52.248;-0.844;2023-04-22T04:43:26;99693.23;;;8.15;79.72
62926;BME280;55732;52.248;-0.844;2023-04-22T04:45:53;99696.94;;;8.11;79.74
62926;BME280;55732;52.248;-0.844;2023-04-22T04:48:19;99696.44;;;8.06;80.15
62926;BME280;55732;52.248;-0.844;2023-04-22T04:50:45;99699.61;;;8.03;80.11
62926;BME280;55732;52.248;-0.844;2023-04-22T04:53:11;99703.67;;;7.97;79.97
62926;BME280;55732;52.248;-0.844;2023-04-22T04:55:37;99707.55;;;7.92;80.18
62926;BME280;55732;52.248;-0.844;2023-04-22T04:58:03;99708.29;;;7.87;80.42
62926;BME280;55732;52.248;-0.844;2023-04-22T05:00:29;99706.89;;;7.82;80.39
62926;BME280;55732;52.248;-0.844;2023-04-22T05:02:54;99706.39;;;7.78;80.52
62926;BME280;55732;52.248;-0.844;2023-04-22T05:05:20;99706.92;;;7.76;80.69
62926;BME280;55732;52.248;-0.844;2023-04-22T05:07:45;99703.95;;;7.73;80.86
62926;BME280;55732;52.248;-0.844;2023-04-22T05:10:11;99703.77;;;7.70;80.75
62926;BME280;55732;52.248;-0.844;2023-04-22T05:12:36;99700.09;;;7.69;80.57
62926;BME280;55732;52.248;-0.844;2023-04-22T05:15:02;99700.46;;;7.68;80.80
62926;BME280;55732;52.248;-0.844;2023-04-22T05:17:28;99701.02;;;7.66;80.71
62926;BME280;55732;52.248;-0.844;2023-04-22T05:19:53;99704.52;;;7.65;80.81
62926;BME280;55732;52.248;-0.844;2023-04-22T05:22:18;99699.96;;;7.63;80.72
62926;BME280;55732;52.248;-0.844;2023-04-22T05:24:44;99697.86;;;7.62;80.73
62926;BME280;55732;52.248;-0.844;2023-04-22T05:27:09;99696.11;;;7.63;80.87
62926;BME280;55732;52.248;-0.844;2023-04-22T05:29:35;99694.19;;;7.64;80.85
62926;BME280;55732;52.248;-0.844;2023-04-22T05:32:00;99691.36;;;7.67;80.81
62926;BME280;55732;52.248;-0.844;2023-04-22T05:34:26;99687.48;;;7.70;80.69
62926;BME280;55732;52.248;-0.844;2023-04-22T05:36:51;99686.08;;;7.74;80.70
62926;BME280;55732;52.248;-0.844;2023-04-22T05:39:17;99684.30;;;7.80;80.67
62926;BME280;55732;52.248;-0.844;2023-04-22T05:41:42;99679.34;;;7.89;80.68
62926;BME280;55732;52.248;-0.844;2023-04-22T05:44:07;99680.66;;;8.05;80.36
62926;BME280;55732;52.248;-0.844;2023-04-22T05:46:33;99678.56;;;8.38;79.95
62926;BME280;55732;52.248;-0.844;2023-04-22T05:48:58;99679.43;;;9.02;79.29
62926;BME280;55732;52.248;-0.844;2023-04-22T05:51:23;99682.48;;;9.76;78.15
62926;BME280;55732;52.248;-0.844;2023-04-22T05:53:50;99678.45;;;10.52;76.75
62926;BME280;55732;52.248;-0.844;2023-04-22T05:56:15;99680.63;;;11.39;75.16
62926;BME280;55732;52.248;-0.844;2023-04-22T05:58:41;99674.73;;;12.29;72.86
62926;BME280;55732;52.248;-0.844;2023-04-22T06:01:08;99679.25;;;12.91;71.05
62926;BME280;55732;52.248;-0.844;2023-04-22T06:03:33;99679.40;;;13.65;69.53
62926;BME280;55732;52.248;-0.844;2023-04-22T06:05:58;99677.42;;;14.61;67.31
62926;BME280;55732;52.248;-0.844;2023-04-22T06:08:24;99679.80;;;15.43;65.33
62926;BME280;55732;52.248;-0.844;2023-04-22T06:10:50;99684.58;;;15.82;63.90
62926;BME280;55732;52.248;-0.844;2023-04-22T06:13:15;99685.59;;;16.03;62.67
62926;BME280;55732;52.248;-0.844;2023-04-22T06:15:41;99681.64;;;16.36;61.39
62926;BME280;55732;52.248;-0.844;2023-04-22T06:18:06;99680.54;;;16.51;60.29
62926;BME280;55732;52.248;-0.844;2023-04-22T06:20:32;99679.69;;;16.49;59.81
62926;BME280;55732;52.248;-0.844;2023-04-22T06:23:00;99684.45;;;16.37;59.55
62926;BME280;55732;52.248;-0.844;2023-04-22T06:25:25;99683.77;;;16.37;59.04
62926;BME280;55732;52.248;-0.844;2023-04-22T06:27:51;99678.02;;;16.33;58.48
62926;BME280;55732;52.248;-0.844;2023-04-22T06:30:16;99672.50;;;16.52;58.33
62926;BME280;55732;52.248;-0.844;2023-04-22T06:32:42;99678.40;;;16.99;57.10
62926;BME280;55732;52.248;-0.844;2023-04-22T06:35:07;99680.89;;;17.32;56.15
62926;BME280;55732;52.248;-0.844;2023-04-22T06:37:33;99676.45;;;17.32;56.00
62926;BME280;55732;52.248;-0.844;2023-04-22T06:39:58;99678.27;;;17.31;55.67
62926;BME280;55732;52.248;-0.844;2023-04-22T06:42:23;99682.45;;;17.53;55.24
62926;BME280;55732;52.248;-0.844;2023-04-22T06:44:49;99686.20;;;17.82;54.24
62926;BME280;55732;52.248;-0.844;2023-04-22T06:47:14;99686.23;;;17.69;54.18
62926;BME280;55732;52.248;-0.844;2023-04-22T06:49:40;99686.65;;;17.59;54.27
62926;BME280;55732;52.248;-0.844;2023-04-22T06:52:05;99686.08;;;17.48;53.35
62926;BME280;55732;52.248;-0.844;2023-04-22T06:54:31;99680.34;;;17.20;53.88
62926;BME280;55732;52.248;-0.844;2023-04-22T06:56:56;99675.25;;;16.85;54.17
62926;BME280;55732;52.248;-0.844;2023-04-22T06:59:22;99674.89;;;16.45;54.61
62926;BME280;55732;52.248;-0.844;2023-04-22T07:01:47;99679.23;;;15.93;54.93
62926;BME280;55732;52.248;-0.844;2023-04-22T07:04:13;99678.36;;;15.33;55.82
62926;BME280;55732;52.248;-0.844;2023-04-22T07:06:38;99681.46;;;14.78;56.61
62926;BME280;55732;52.248;-0.844;2023-04-22T07:09:04;99691.95;;;14.26;57.56
62926;BME280;55732;52.248;-0.844;2023-04-22T07:11:29;99700.83;;;13.77;58.31
62926;BME280;55732;52.248;-0.844;2023-04-22T07:13:58;99697.39;;;13.35;59.23
62926;BME280;55732;52.248;-0.844;2023-04-22T07:16:23;99697.56;;;13.01;60.24
62926;BME280;55732;52.248;-0.844;2023-04-22T07:18:49;99701.30;;;12.78;60.93
62926;BME280;55732;52.248;-0.844;2023-04-22T07:21:15;99707.57;;;12.67;61.44
62926;BME280;55732;52.248;-0.844;2023-04-22T07:23:40;99708.83;;;12.66;61.44
62926;BME280;55732;52.248;-0.844;2023-04-22T07:26:06;99697.87;;;12.66;61.42
62926;BME280;55732;52.248;-0.844;2023-04-22T07:28:31;99690.35;;;13.20;60.95
62926;BME280;55732;52.248;-0.844;2023-04-22T07:30:57;99687.44;;;14.11;59.72
62926;BME280;55732;52.248;-0.844;2023-04-22T07:33:22;99683.84;;;15.02;58.48
62926;BME280;55732;52.248;-0.844;2023-04-22T07:35:47;99692.13;;;15.56;57.45
62926;BME280;55732;52.248;-0.844;2023-04-22T07:38:14;99692.50;;;15.75;56.64
62926;BME280;55732;52.248;-0.844;2023-04-22T07:40:40;99682.23;;;16.16;55.62
62926;BME280;55732;52.248;-0.844;2023-04-22T07:43:05;99672.23;;;16.18;54.96
62926;BME280;55732;52.248;-0.844;2023-04-22T07:45:31;99670.27;;;15.76;55.46
62926;BME280;55732;52.248;-0.844;2023-04-22T07:47:57;99675.89;;;15.73;55.42
62926;BME280;55732;52.248;-0.844;2023-04-22T07:50:23;99666.88;;;16.54;54.87
62926;BME280;55732;52.248;-0.844;2023-04-22T07:52:48;99666.35;;;17.90;52.81
62926;BME280;55732;52.248;-0.844;2023-04-22T07:55:14;99671.48;;;19.84;49.44
62926;BME280;55732;52.248;-0.844;2023-04-22T07:57:39;99669.79;;;21.58;47.03
62926;BME280;55732;52.248;-0.844;2023-04-22T08:00:06;99671.19;;;22.80;44.96
62926;BME280;55732;52.248;-0.844;2023-04-22T08:02:32;99676.69;;;23.50;43.17
62926;BME280;55732;52.248;-0.844;2023-04-22T08:04:57;99683.67;;;23.45;42.36
62926;BME280;55732;52.248;-0.844;2023-04-22T08:07:22;99681.71;;;22.42;43.03
62926;BME280;55732;52.248;-0.844;2023-04-22T08:09:48;99679.10;;;21.13;43.60
62926;BME280;55732;52.248;-0.844;2023-04-22T08:12:13;99676.09;;;19.89;44.86
62926;BME280;55732;52.248;-0.844;2023-04-22T08:14:38;99677.45;;;18.98;45.97
62926;BME280;55732;52.248;-0.844;2023-04-22T08:17:04;99678.03;;;18.68;46.88
62926;BME280;55732;52.248;-0.844;2023-04-22T08:19:29;99676.52;;;19.10;46.67
62926;BME280;55732;52.248;-0.844;2023-04-22T08:21:55;99673.65;;;20.24;45.12
62926;BME280;55732;52.248;-0.844;2023-04-22T08:24:20;99677.06;;;21.94;42.92
62926;BME280;55732;52.248;-0.844;2023-04-22T08:26:46;99672.73;;;22.49;42.14
62926;BME280;55732;52.248;-0.844;2023-04-22T08:29:11;99668.17;;;22.83;41.32
62926;BME280;55732;52.248;-0.844;2023-04-22T08:31:37;99669.83;;;22.71;40.49
62926;BME280;55732;52.248;-0.844;2023-04-22T08:34:02;99672.39;;;22.32;40.73
62926;BME280;55732;52.248;-0.844;2023-04-22T08:36:29;99676.96;;;21.93;40.70
62926;BME280;55732;52.248;-0.844;2023-04-22T08:38:55;99677.73;;;21.45;41.15
62926;BME280;55732;52.248;-0.844;2023-04-22T08:41:22;99672.72;;;20.47;42.71
62926;BME280;55732;52.248;-0.844;2023-04-22T08:43:51;99672.40;;;19.48;44.27
62926;BME280;55732;52.248;-0.844;2023-04-22T08:46:17;99673.34;;;18.65;45.22
62926;BME280;55732;52.248;-0.844;2023-04-22T08:48:49;99673.45;;;18.07;46.16
62926;BME280;55732;52.248;-0.844;2023-04-22T08:51:16;99666.59;;;17.94;46.26
62926;BME280;55732;52.248;-0.844;2023-04-22T08:53:43;99660.80;;;19.16;45.18
62926;BME280;55732;52.248;-0.844;2023-04-22T08:56:11;99661.92;;;19.87;43.90
62926;BME280;55732;52.248;-0.844;2023-04-22T08:58:38;99652.93;;;20.84;42.76
62926;BME280;55732;52.248;-0.844;2023-04-22T09:01:06;99648.81;;;20.56;42.53
62926;BME280;55732;52.248;-0.844;2023-04-22T09:03:34;99653.23;;;20.81;42.70
62926;BME280;55732;52.248;-0.844;2023-04-22T09:06:03;99647.05;;;21.95;41.39
62926;BME280;55732;52.248;-0.844;2023-04-22T09:08:30;99646.18;;;23.72;39.35
62926;BME280;55732;52.248;-0.844;2023-04-22T09:10:57;99650.44;;;25.49;37.59
62926;BME280;55732;52.248;-0.844;2023-04-22T09:13:24;99653.33;;;26.02;35.94
62926;BME280;55732;52.248;-0.844;2023-04-22T09:15:50;99654.94;;;25.54;36.30
62926;BME280;55732;52.248;-0.844;2023-04-22T09:18:18;99654.02;;;25.70;36.09
62926;BME280;55732;52.248;-0.844;2023-04-22T09:20:50;99651.95;;;25.11;35.94
62926;BME280;55732;52.248;-0.844;2023-04-22T09:23:18;99645.36;;;24.76;35.65
62926;BME280;55732;52.248;-0.844;2023-04-22T09:25:44;99642.81;;;25.95;35.05
62926;BME280;55732;52.248;-0.844;2023-04-22T09:28:16;99636.92;;;26.28;34.29
62926;BME280;55732;52.248;-0.844;2023-04-22T09:30:43;99643.23;;;26.20;34.05
62926;BME280;55732;52.248;-0.844;2023-04-22T09:33:10;99647.34;;;26.29;33.92
62926;BME280;55732;52.248;-0.844;2023-04-22T09:35:42;99652.65;;;26.03;34.34
62926;BME280;55732;52.248;-0.844;2023-04-22T09:38:10;99648.02;;;26.84;33.13
62926;BME280;55732;52.248;-0.844;2023-04-22T09:40:37;99651.24;;;27.46;32.29
62926;BME280;55732;52.248;-0.844;2023-04-22T09:43:07;99651.52;;;27.60;32.14
62926;BME280;55732;52.248;-0.844;2023-04-22T09:45:37;99653.50;;;27.33;31.60
62926;BME280;55732;52.248;-0.844;2023-04-22T09:48:08;99652.69;;;26.93;31.98
62926;BME280;55732;52.248;-0.844;2023-04-22T09:50:34;99649.32;;;26.99;32.10
62926;BME280;55732;52.248;-0.844;2023-04-22T09:53:14;99650.52;;;27.15;31.92
62926;BME280;55732;52.248;-0.844;2023-04-22T09:55:45;99647.43;;;27.21;31.95
62926;BME280;55732;52.248;-0.844;2023-04-22T09:58:13;99642.64;;;27.20;31.54
62926;BME280;55732;52.248;-0.844;2023-04-22T10:03:06;99641.91;;;26.22;32.36
62926;BME280;55732;52.248;-0.844;2023-04-22T10:05:32;99639.75;;;26.99;31.37
62926;BME280;55732;52.248;-0.844;2023-04-22T10:08:05;99640.77;;;26.87;31.31
62926;BME280;55732;52.248;-0.844;2023-04-22T10:10:31;99642.78;;;25.89;32.10
62926;BME280;55732;52.248;-0.844;2023-04-22T10:12:57;99645.63;;;25.35;32.64
62926;BME280;55732;52.248;-0.844;2023-04-22T10:15:23;99640.66;;;24.91;32.86
62926;BME280;55732;52.248;-0.844;2023-04-22T10:17:51;99640.13;;;24.59;33.11
62926;BME280;55732;52.248;-0.844;2023-04-22T10:20:19;99634.48;;;25.15;32.42
62926;BME280;55732;52.248;-0.844;2023-04-22T10:22:45;99633.27;;;25.66;32.14
62926;BME280;55732;52.248;-0.844;2023-04-22T10:25:12;99627.27;;;24.65;33.19
62926;BME280;55732;52.248;-0.844;2023-04-22T10:27:52;99623.23;;;24.61;33.60
62926;BME280;55732;52.248;-0.844;2023-04-22T10:30:26;99616.71;;;24.52;33.04
62926;BME280;55732;52.248;-0.844;2023-04-22T10:32:53;99618.19;;;23.95;33.24
62926;BME280;55732;52.248;-0.844;2023-04-22T10:35:25;99622.23;;;23.94;33.46
62926;BME280;55732;52.248;-0.844;2023-04-22T10:37:52;99620.71;;;23.80;33.58
62926;BME280;55732;52.248;-0.844;2023-04-22T10:40:17;99622.44;;;23.22;34.54
62926;BME280;55732;52.248;-0.844;2023-04-22T10:42:49;99618.27;;;22.85;35.03
62926;BME280;55732;52.248;-0.844;2023-04-22T10:45:15;99614.55;;;22.58;35.19
62926;BME280;55732;52.248;-0.844;2023-04-22T10:47:42;99623.97;;;21.86;35.19
62926;BME280;55732;52.248;-0.844;2023-04-22T10:52:48;99633.23;;;20.53;36.28
62926;BME280;55732;52.248;-0.844;2023-04-22T10:55:14;99625.05;;;20.24;36.92
62926;BME280;55732;52.248;-0.844;2023-04-22T10:57:45;99630.12;;;20.06;37.07
62926;BME280;55732;52.248;-0.844;2023-04-22T11:00:27;99630.70;;;19.84;37.86
62926;BME280;55732;52.248;-0.844;2023-04-22T11:03:14;99628.34;;;19.47;38.77
62926;BME280;55732;52.248;-0.844;2023-04-22T11:05:41;99627.25;;;19.06;38.75
62926;BME280;55732;52.248;-0.844;2023-04-22T11:08:11;99625.66;;;18.85;38.56
62926;BME280;55732;52.248;-0.844;2023-04-22T11:10:42;99617.69;;;18.84;38.46
62926;BME280;55732;52.248;-0.844;2023-04-22T11:13:12;99614.73;;;18.87;38.72
62926;BME280;55732;52.248;-0.844;2023-04-22T11:15:40;99610.83;;;18.90;38.99
62926;BME280;55732;52.248;-0.844;2023-04-22T11:18:08;99614.40;;;18.93;39.37
62926;BME280;55732;52.248;-0.844;2023-04-22T11:20:35;99614.45;;;18.95;39.23
62926;BME280;55732;52.248;-0.844;2023-04-22T11:23:01;99615.30;;;18.89;38.51
62926;BME280;55732;52.248;-0.844;2023-04-22T11:25:27;99619.70;;;18.76;39.06
62926;BME280;55732;52.248;-0.844;2023-04-22T11:27:53;99615.42;;;18.61;38.98
62926;BME280;55732;52.248;-0.844;2023-04-22T11:30:23;99613.14;;;18.46;39.27
62926;BME280;55732;52.248;-0.844;2023-04-22T11:32:55;99610.98;;;18.28;39.48
62926;BME280;55732;52.248;-0.844;2023-04-22T11:35:27;99612.25;;;18.13;39.68
62926;BME280;55732;52.248;-0.844;2023-04-22T11:38:04;99609.66;;;18.04;40.03
62926;BME280;55732;52.248;-0.844;2023-04-22T11:40:34;99603.58;;;18.00;40.02
62926;BME280;55732;52.248;-0.844;2023-04-22T11:43:02;99602.01;;;18.00;40.01
62926;BME280;55732;52.248;-0.844;2023-04-22T11:45:30;99606.52;;;17.98;39.96
62926;BME280;55732;52.248;-0.844;2023-04-22T11:47:58;99607.34;;;17.96;40.23
62926;BME280;55732;52.248;-0.844;2023-04-22T11:50:32;99610.11;;;17.90;40.23
62926;BME280;55732;52.248;-0.844;2023-04-22T11:53:00;99609.16;;;17.88;40.13
62926;BME280;55732;52.248;-0.844;2023-04-22T11:55:31;99606.86;;;17.91;40.30
62926;BME280;55732;52.248;-0.844;2023-04-22T11:58:07;99609.55;;;17.98;40.47
62926;BME280;55732;52.248;-0.844;2023-04-22T12:00:41;99603.19;;;18.09;39.97
62926;BME280;55732;52.248;-0.844;2023-04-22T12:03:12;99605.27;;;18.25;39.99
62926;BME280;55732;52.248;-0.844;2023-04-22T12:05:42;99609.16;;;18.44;39.53
62926;BME280;55732;52.248;-0.844;2023-04-22T12:08:11;99612.29;;;18.52;39.15
62926;BME280;55732;52.248;-0.844;2023-04-22T12:10:44;99611.73;;;18.56;39.21
62926;BME280;55732;52.248;-0.844;2023-04-22T12:13:20;99615.64;;;18.57;38.85
62926;BME280;55732;52.248;-0.844;2023-04-22T12:15:46;99619.20;;;18.53;38.59
62926;BME280;55732;52.248;-0.844;2023-04-22T12:18:12;99619.30;;;18.52;38.52
62926;BME280;55732;52.248;-0.844;2023-04-22T12:20:39;99621.77;;;18.48;38.19
62926;BME280;55732;52.248;-0.844;2023-04-22T12:23:13;99623.22;;;18.44;38.96
62926;BME280;55732;52.248;-0.844;2023-04-22T12:25:40;99622.48;;;18.41;39.56
62926;BME280;55732;52.248;-0.844;2023-04-22T12:28:05;99623.11;;;18.46;39.88
62926;BME280;55732;52.248;-0.844;2023-04-22T12:30:31;99621.05;;;18.55;39.47
62926;BME280;55732;52.248;-0.844;2023-04-22T12:32:57;99625.52;;;18.55;39.48
62926;BME280;55732;52.248;-0.844;2023-04-22T12:35:23;99624.25;;;18.55;39.48
62926;BME280;55732;52.248;-0.844;2023-04-22T12:37:48;99624.67;;;18.54;39.49
62926;BME280;55732;52.248;-0.844;2023-04-22T12:40:13;99624.55;;;18.53;39.58
62926;BME280;55732;52.248;-0.844;2023-04-22T12:42:39;99620.98;;;18.57;39.17
62926;BME280;55732;52.248;-0.844;2023-04-22T12:45:05;99618.94;;;18.66;39.33
62926;BME280;55732;52.248;-0.844;2023-04-22T12:47:30;99624.71;;;18.61;38.85
62926;BME280;55732;52.248;-0.844;2023-04-22T12:49:56;99629.46;;;18.59;38.99
62926;BME280;55732;52.248;-0.844;2023-04-22T12:52:22;99633.72;;;18.52;39.00
62926;BME280;55732;52.248;-0.844;2023-04-22T12:54:48;99630.97;;;18.42;38.65
62926;BME280;55732;52.248;-0.844;2023-04-22T12:57:14;99627.61;;;18.27;38.65